Ana Sayfa
METAR-TAF:

METAR-TAF

Havaalanları :

Narrabri, Avustralya

Enlem: 30-19-09S, Boylam: 149-49-38E, yükseklik: 240 m

Güncel hava durumu gözlemi

Rapor saat 04:00 UTC de 57 dakika önce yapıldı.
Rüzgar batıdan 7 kt
Sıcaklık 19°C
Nem 43%
Basınç 1017 hPa
Görüş mesafesi 10 km veya daha fazla
4500 ft yükseklikte parçalı çok bulutlu

METAR: YNBR 180400Z AUTO 26007KT 9999 // BKN045 19/06 Q1017

Saat: 14:57 (04:57 UTC)


TAF: eksik

4.000'den fazla havaalanı için hava durumu gözlemleri ve tahminleri (METAR ve TAF raporları).

Kullanılabilir istasyonlar harita üzerinde sarı ve kırmızı noktalarla gösterilir.

İstasyonun adını görmek için fareyi noktanın üzerinde gezdirin.

Sonrasında hava gözlem ve tahminlerini görmek için tıklayın.

Haritayı değiştirmek için: yaklaştırmak için siyah artı işaretli yeşil düğmeye ve uzaklaştırmak için de eksi işaretli düğmeye hızla tıklayın; bitişik haritalar için yeşil okları kullanın.


METAR-TAF: